createdAt,value
2022-10-18T00:01:12.374Z,102288.03
2022-10-18T00:03:44.641Z,102291.16
2022-10-18T00:06:16.912Z,102287.97
2022-10-18T00:08:49.132Z,102286.34
2022-10-18T00:11:21.486Z,102289.53
2022-10-18T00:13:55.545Z,102287.91
2022-10-18T00:16:27.835Z,102283.94
2022-10-18T00:19:00.100Z,102279.97
2022-10-18T00:21:34.480Z,102265.69
2022-10-18T00:24:06.761Z,102272.84
2022-10-18T00:26:38.994Z,102268.91
2022-10-18T00:29:13.746Z,102273.25
2022-10-18T00:31:45.988Z,102265.31
2022-10-18T00:34:18.268Z,102265.69
2022-10-18T00:36:50.574Z,102268.84
2022-10-18T00:39:22.994Z,102268.47
2022-10-18T00:41:55.348Z,102267.31
2022-10-18T00:44:27.563Z,102273.28
2022-10-18T00:47:02.446Z,102276.91
2022-10-18T00:49:36.450Z,102280.09
2022-10-18T00:52:14.386Z,102279.31
2022-10-18T00:54:48.097Z,102280.88
2022-10-18T00:57:20.687Z,102276.13
2022-10-18T00:59:53.331Z,102278.47
2022-10-18T01:02:26.105Z,102276.06
2022-10-18T01:04:58.337Z,102280.03
2022-10-18T01:07:46.766Z,102280.06
2022-10-18T01:10:38.963Z,102281.63
2022-10-18T01:13:34.672Z,102288.38
2022-10-18T01:16:17.010Z,102291.53
2022-10-18T01:18:49.471Z,102291.16
2022-10-18T01:21:24.809Z,102291.16
2022-10-18T01:24:09.185Z,102290.38
2022-10-18T01:27:00.225Z,102290.31
2022-10-18T01:29:47.848Z,102291.13
2022-10-18T01:32:24.971Z,102293.47
2022-10-18T01:34:59.549Z,102288.34
2022-10-18T01:37:32.921Z,102298.28
2022-10-18T01:40:06.702Z,102291.56
2022-10-18T01:42:39.931Z,102290.00
2022-10-18T01:45:13.576Z,102289.63
2022-10-18T01:47:47.085Z,102299.97
2022-10-18T01:50:28.923Z,102299.97
2022-10-18T01:53:01.387Z,102296.00
2022-10-18T01:55:38.738Z,102293.19
2022-10-18T01:58:25.334Z,102301.53
2022-10-18T02:01:06.654Z,102290.03
2022-10-18T02:03:42.677Z,102295.25
2022-10-18T02:06:20.172Z,102292.91
2022-10-18T02:08:56.737Z,102285.78
2022-10-18T02:11:30.165Z,102294.47
2022-10-18T02:14:12.801Z,102284.97
2022-10-18T02:16:48.002Z,102284.13
2022-10-18T02:22:00.767Z,102297.25
2022-10-18T02:24:42.145Z,102291.31
2022-10-18T02:27:14.651Z,102297.63
2022-10-18T02:29:47.011Z,102291.25
2022-10-18T02:32:21.994Z,102301.56
2022-10-18T02:34:58.537Z,102305.16
2022-10-18T02:37:35.063Z,102301.16
2022-10-18T02:40:08.613Z,102298.34
2022-10-18T02:42:45.333Z,102291.97
2022-10-18T02:45:17.839Z,102304.69
2022-10-18T02:47:50.172Z,102303.09
2022-10-18T02:50:22.482Z,102303.94
2022-10-18T02:52:54.741Z,102295.59
2022-10-18T02:58:04.176Z,102301.53
2022-10-18T03:00:36.417Z,102302.38
2022-10-18T03:03:08.745Z,102300.00
2022-10-18T03:05:41.004Z,102302.78
2022-10-18T03:08:13.274Z,102296.00
2022-10-18T03:10:46.572Z,102304.31
2022-10-18T03:13:19.016Z,102305.53
2022-10-18T03:15:51.340Z,102298.75
2022-10-18T03:18:23.625Z,102292.78
2022-10-18T03:20:56.056Z,102298.75
2022-10-18T03:23:28.302Z,102296.38
2022-10-18T03:26:00.585Z,102305.53
2022-10-18T03:28:32.970Z,102299.97
2022-10-18T03:31:05.442Z,102303.94
2022-10-18T03:33:37.736Z,102306.34
2022-10-18T03:36:10.086Z,102315.06
2022-10-18T03:38:42.548Z,102316.28
2022-10-18T03:41:14.880Z,102311.53
2022-10-18T03:43:47.318Z,102311.88
2022-10-18T03:46:19.591Z,102315.44
2022-10-18T03:48:51.850Z,102309.13
2022-10-18T03:51:24.142Z,102310.72
2022-10-18T03:53:56.433Z,102300.78
2022-10-18T03:56:28.718Z,102290.50
2022-10-18T03:59:01.175Z,102294.09
2022-10-18T04:01:33.503Z,102303.28
2022-10-18T04:04:08.119Z,102302.50
2022-10-18T04:06:40.404Z,102299.34
2022-10-18T04:09:12.695Z,102294.22
2022-10-18T04:11:44.933Z,102292.31
2022-10-18T04:14:17.827Z,102291.22
2022-10-18T04:16:50.126Z,102287.69
2022-10-18T04:19:22.389Z,102292.47
2022-10-18T04:21:54.660Z,102290.09
2022-10-18T04:24:26.990Z,102294.91
2022-10-18T04:26:59.249Z,102295.75
2022-10-18T04:29:31.754Z,102275.75
2022-10-18T04:32:04.103Z,102306.16
2022-10-18T04:34:38.560Z,102307.41
2022-10-18T04:37:10.868Z,102308.56
2022-10-18T04:39:49.851Z,102303.03
2022-10-18T04:42:25.366Z,102306.19
2022-10-18T04:44:57.655Z,102306.25
2022-10-18T04:47:30.370Z,102311.41
2022-10-18T04:50:02.926Z,102303.91
2022-10-18T04:52:35.205Z,102299.19
2022-10-18T04:55:07.595Z,102301.97
2022-10-18T04:57:39.868Z,102309.50
2022-10-18T05:00:12.539Z,102323.00
2022-10-18T05:02:44.785Z,102320.69
2022-10-18T05:05:17.113Z,102306.44
2022-10-18T05:07:49.348Z,102316.34
2022-10-18T05:10:21.654Z,102313.97
2022-10-18T05:12:53.921Z,102317.59
2022-10-18T05:15:26.222Z,102309.28
2022-10-18T05:17:58.502Z,102309.69
2022-10-18T05:20:30.814Z,102312.47
2022-10-18T05:23:03.060Z,102312.88
2022-10-18T05:25:35.304Z,102315.63
2022-10-18T05:28:11.101Z,102320.78
2022-10-18T05:30:53.435Z,102327.16
2022-10-18T05:33:25.674Z,102327.16
2022-10-18T05:35:58.043Z,102325.56
2022-10-18T05:38:31.076Z,102321.25
2022-10-18T05:41:04.282Z,102325.19
2022-10-18T05:43:36.682Z,102329.16
2022-10-18T05:46:14.798Z,102339.88
2022-10-18T05:48:51.185Z,102329.19
2022-10-18T05:51:23.476Z,102329.56
2022-10-18T05:53:55.873Z,102331.97
2022-10-18T05:56:28.179Z,102333.16
2022-10-18T05:59:00.495Z,102341.09
2022-10-18T06:01:32.846Z,102354.13
2022-10-18T06:04:05.431Z,102348.22
2022-10-18T06:06:38.561Z,102341.09
2022-10-18T06:09:10.920Z,102347.03
2022-10-18T06:11:43.263Z,102350.25
2022-10-18T06:14:15.589Z,102363.72
2022-10-18T06:16:47.865Z,102359.75
2022-10-18T06:19:20.206Z,102358.97
2022-10-18T06:21:52.484Z,102356.19
2022-10-18T06:24:24.855Z,102358.19
2022-10-18T06:26:57.497Z,102358.56
2022-10-18T06:29:29.770Z,102362.94
2022-10-18T06:32:02.042Z,102360.56
2022-10-18T06:34:34.336Z,102361.00
2022-10-18T06:37:06.610Z,102365.31
2022-10-18T06:39:38.886Z,102371.66
2022-10-18T06:42:11.174Z,102364.94
2022-10-18T06:44:43.448Z,102366.91
2022-10-18T06:47:15.720Z,102375.63
2022-10-18T06:49:47.958Z,102379.56
2022-10-18T06:52:25.460Z,102387.53
2022-10-18T06:54:57.847Z,102385.16
2022-10-18T06:57:30.282Z,102387.53
2022-10-18T07:00:04.133Z,102388.72
2022-10-18T07:02:37.713Z,102404.16
2022-10-18T07:05:10.963Z,102406.53
2022-10-18T07:07:43.248Z,102407.75
2022-10-18T07:10:15.653Z,102407.75
2022-10-18T07:12:48.208Z,102411.69
2022-10-18T07:15:22.658Z,102420.00
2022-10-18T07:17:55.011Z,102416.81
2022-10-18T07:20:27.400Z,102418.38
2022-10-18T07:22:59.731Z,102421.91
2022-10-18T07:25:32.063Z,102416.72
2022-10-18T07:28:04.528Z,102427.31
2022-10-18T07:30:36.894Z,102437.22
2022-10-18T07:33:09.280Z,102447.47
2022-10-18T07:35:41.591Z,102442.63
2022-10-18T07:38:13.987Z,102446.53
2022-10-18T07:40:46.435Z,102446.47
2022-10-18T07:43:18.778Z,102458.72
2022-10-18T07:45:51.666Z,102469.31
2022-10-18T07:48:24.083Z,102470.00
2022-10-18T07:51:00.652Z,102477.47
2022-10-18T07:53:34.498Z,102482.53
2022-10-18T07:56:09.621Z,102489.66
2022-10-18T07:58:46.043Z,102496.41
2022-10-18T08:01:19.354Z,102496.75
2022-10-18T08:03:54.525Z,102509.31
2022-10-18T08:06:27.054Z,102510.84
2022-10-18T08:08:59.543Z,102504.53
2022-10-18T08:11:31.883Z,102515.56
2022-10-18T08:14:04.229Z,102514.22
2022-10-18T08:16:36.580Z,102516.38
2022-10-18T08:19:09.070Z,102525.50
2022-10-18T08:21:41.605Z,102531.44
2022-10-18T08:24:13.927Z,102528.28
2022-10-18T08:26:46.292Z,102530.09
2022-10-18T08:29:23.319Z,102528.78
2022-10-18T08:31:57.289Z,102532.16
2022-10-18T08:34:29.597Z,102535.63
2022-10-18T08:37:02.440Z,102543.81
2022-10-18T08:39:34.851Z,102549.84
2022-10-18T08:42:26.521Z,102550.66
2022-10-18T08:45:02.065Z,102544.97
2022-10-18T08:47:36.719Z,102550.22
2022-10-18T08:50:17.588Z,102540.34
2022-10-18T08:52:53.264Z,102545.72
2022-10-18T08:55:36.528Z,102547.66
2022-10-18T08:58:18.178Z,102550.41
2022-10-18T09:00:58.113Z,102549.81
2022-10-18T09:03:45.937Z,102553.59
2022-10-18T09:06:36.780Z,102558.53
2022-10-18T09:09:18.200Z,102558.44
2022-10-18T09:12:02.011Z,102549.34
2022-10-18T09:14:53.585Z,102550.22
2022-10-18T09:17:31.938Z,102557.69
2022-10-18T09:20:19.848Z,102556.31
2022-10-18T09:22:54.960Z,102561.69
2022-10-18T09:25:37.570Z,102562.06
2022-10-18T09:28:16.883Z,102558.88
2022-10-18T09:30:59.701Z,102563.69
2022-10-18T09:33:39.374Z,102573.56
2022-10-18T09:36:17.641Z,102579.47
2022-10-18T09:38:52.747Z,102574.53
2022-10-18T09:41:43.925Z,102574.88
2022-10-18T09:44:22.298Z,102579.75
2022-10-18T09:47:03.152Z,102586.78
2022-10-18T09:49:42.951Z,102580.13
2022-10-18T09:52:47.063Z,102584.56
2022-10-18T09:55:22.531Z,102589.53
2022-10-18T09:57:57.652Z,102588.72
2022-10-18T10:00:33.895Z,102592.41
2022-10-18T10:03:15.901Z,102584.63
2022-10-18T10:06:01.572Z,102595.91
2022-10-18T10:08:34.973Z,102589.41
2022-10-18T10:11:26.450Z,102587.78
2022-10-18T10:14:19.697Z,102583.69
2022-10-18T10:16:55.382Z,102581.72
2022-10-18T10:19:29.808Z,102580.25
2022-10-18T10:22:05.352Z,102589.19
2022-10-18T10:24:53.111Z,102581.91
2022-10-18T10:27:53.081Z,102568.38
2022-10-18T10:30:30.548Z,102571.22
2022-10-18T10:33:05.350Z,102585.41
2022-10-18T10:35:54.554Z,102581.91
2022-10-18T10:38:28.639Z,102593.31
2022-10-18T10:41:02.278Z,102595.75
2022-10-18T10:43:39.371Z,102608.88
2022-10-18T10:46:19.983Z,102615.47
2022-10-18T10:49:08.434Z,102609.50
2022-10-18T10:52:02.536Z,102617.66
2022-10-18T10:54:51.328Z,102613.78
2022-10-18T10:57:28.020Z,102607.91
2022-10-18T11:00:01.397Z,102613.41
2022-10-18T11:02:36.302Z,102606.56
2022-10-18T11:05:29.078Z,102621.53
2022-10-18T11:08:03.070Z,102633.16
2022-10-18T11:10:39.533Z,102633.81
2022-10-18T11:13:16.169Z,102631.97
2022-10-18T11:15:52.682Z,102638.13
2022-10-18T11:18:30.484Z,102639.56
2022-10-18T11:21:08.329Z,102633.56
2022-10-18T11:23:42.242Z,102632.56
2022-10-18T11:26:31.626Z,102630.81
2022-10-18T11:29:14.174Z,102630.88
2022-10-18T11:32:00.073Z,102631.53
2022-10-18T11:34:47.889Z,102621.28
2022-10-18T11:37:28.494Z,102629.72
2022-10-18T11:40:20.552Z,102630.97
2022-10-18T11:43:02.011Z,102632.41
2022-10-18T11:45:46.871Z,102616.78
2022-10-18T11:48:40.265Z,102612.41
2022-10-18T11:51:38.583Z,102625.31
2022-10-18T11:54:28.720Z,102629.47
2022-10-18T11:57:07.523Z,102621.84
2022-10-18T11:59:49.018Z,102611.59
2022-10-18T12:02:32.309Z,102605.13
2022-10-18T12:05:22.960Z,102609.66
2022-10-18T12:08:05.334Z,102605.66
2022-10-18T12:10:52.771Z,102612.25
2022-10-18T12:13:40.768Z,102617.09
2022-10-18T12:16:14.774Z,102616.63
2022-10-18T12:18:59.793Z,102608.66
2022-10-18T12:21:37.549Z,102604.94
2022-10-18T12:24:20.442Z,102599.41
2022-10-18T12:26:57.291Z,102594.78
2022-10-18T12:29:39.890Z,102596.56
2022-10-18T12:32:15.197Z,102589.75
2022-10-18T12:35:13.942Z,102595.47
2022-10-18T12:38:15.582Z,102595.34
2022-10-18T12:40:56.246Z,102598.81
2022-10-18T12:43:44.004Z,102598.72
2022-10-18T12:46:19.920Z,102597.25
2022-10-18T12:49:04.055Z,102602.69
2022-10-18T12:51:46.846Z,102596.75
2022-10-18T12:54:23.749Z,102594.44
2022-10-18T12:56:56.625Z,102589.53
2022-10-18T12:59:36.965Z,102580.06
2022-10-18T13:02:20.668Z,102582.91
2022-10-18T13:07:50.081Z,102561.03
2022-10-18T13:10:35.712Z,102551.75
2022-10-18T13:13:38.772Z,102565.69
2022-10-18T13:16:24.452Z,102561.63
2022-10-18T13:19:05.787Z,102560.81
2022-10-18T13:22:13.810Z,102546.56
2022-10-18T13:25:11.366Z,102554.75
2022-10-18T13:27:53.814Z,102548.81
2022-10-18T13:30:45.125Z,102539.69
2022-10-18T13:33:38.695Z,102546.00
2022-10-18T13:36:23.509Z,102540.50
2022-10-18T13:39:03.358Z,102534.84
2022-10-18T13:41:42.671Z,102532.56
2022-10-18T13:44:40.428Z,102539.66
2022-10-18T13:47:14.362Z,102555.63
2022-10-18T13:50:08.169Z,102557.22
2022-10-18T13:53:00.867Z,102544.44
2022-10-18T13:55:46.081Z,102547.72
2022-10-18T13:58:53.839Z,102555.41
2022-10-18T14:01:50.781Z,102551.69
2022-10-18T14:04:45.396Z,102551.31
2022-10-18T14:07:20.186Z,102545.91
2022-10-18T14:09:56.096Z,102549.91
2022-10-18T14:12:41.968Z,102541.66
2022-10-18T14:15:25.435Z,102544.56
2022-10-18T14:18:00.959Z,102547.63
2022-10-18T14:20:55.127Z,102552.00
2022-10-18T14:23:42.069Z,102545.28
2022-10-18T14:26:18.689Z,102557.94
2022-10-18T14:29:05.294Z,102550.28
2022-10-18T14:31:37.939Z,102559.94
2022-10-18T14:34:15.255Z,102562.72
2022-10-18T14:36:48.915Z,102562.00
2022-10-18T14:39:24.106Z,102549.03
2022-10-18T14:41:57.314Z,102558.19
2022-10-18T14:44:31.516Z,102558.19
2022-10-18T14:47:15.000Z,102554.78
2022-10-18T14:49:47.791Z,102551.06
2022-10-18T14:52:31.654Z,102557.25
2022-10-18T14:55:07.326Z,102549.88
2022-10-18T14:57:41.227Z,102555.19
2022-10-18T15:00:21.525Z,102560.19
2022-10-18T15:02:55.884Z,102552.03
2022-10-18T15:05:29.921Z,102555.03
2022-10-18T15:08:03.055Z,102555.19
2022-10-18T15:10:38.789Z,102558.13
2022-10-18T15:13:14.243Z,102562.34
2022-10-18T15:15:47.453Z,102548.31
2022-10-18T15:18:21.364Z,102544.66
2022-10-18T15:21:12.548Z,102548.19
2022-10-18T15:23:47.831Z,102546.13
2022-10-18T15:26:34.309Z,102539.91
2022-10-18T15:29:07.254Z,102547.28
2022-10-18T15:31:44.181Z,102541.09
2022-10-18T15:34:21.390Z,102546.81
2022-10-18T15:36:54.996Z,102544.13
2022-10-18T15:39:32.594Z,102538.31
2022-10-18T15:42:08.166Z,102540.44
2022-10-18T15:44:48.643Z,102538.13
2022-10-18T15:47:23.030Z,102540.19
2022-10-18T15:49:59.376Z,102536.66
2022-10-18T15:52:40.866Z,102537.56
2022-10-18T15:55:34.716Z,102534.13
2022-10-18T15:58:13.057Z,102545.41
2022-10-18T16:00:46.551Z,102547.88
2022-10-18T16:03:20.200Z,102551.13
2022-10-18T16:06:02.777Z,102538.56
2022-10-18T16:08:45.857Z,102536.59
2022-10-18T16:11:25.451Z,102539.44
2022-10-18T16:14:00.346Z,102534.78
2022-10-18T16:16:37.066Z,102532.47
2022-10-18T16:19:15.622Z,102537.34
2022-10-18T16:21:49.468Z,102539.91
2022-10-18T16:24:25.409Z,102534.13
2022-10-18T16:26:58.433Z,102540.56
2022-10-18T16:29:34.694Z,102543.41
2022-10-18T16:32:07.411Z,102547.44
2022-10-18T16:34:40.272Z,102544.28
2022-10-18T16:37:12.729Z,102549.47
2022-10-18T16:39:47.315Z,102551.44
2022-10-18T16:42:20.196Z,102549.84
2022-10-18T16:44:54.942Z,102549.44
2022-10-18T16:47:29.026Z,102559.22
2022-10-18T16:50:08.255Z,102577.34
2022-10-18T16:52:41.079Z,102568.22
2022-10-18T16:55:21.353Z,102572.53
2022-10-18T16:57:53.931Z,102572.91
2022-10-18T17:00:26.632Z,102583.91
2022-10-18T17:02:59.650Z,102577.53
2022-10-18T17:05:33.643Z,102589.34
2022-10-18T17:08:06.600Z,102587.28
2022-10-18T17:10:39.102Z,102586.41
2022-10-18T17:13:13.496Z,102590.69
2022-10-18T17:15:46.152Z,102583.88
2022-10-18T17:18:20.606Z,102585.34
2022-10-18T17:23:39.775Z,102586.03
2022-10-18T17:26:28.207Z,102585.16
2022-10-18T17:29:05.983Z,102585.06
2022-10-18T17:31:43.842Z,102584.56
2022-10-18T17:34:21.715Z,102581.66
2022-10-18T17:36:58.455Z,102579.53
2022-10-18T17:39:31.081Z,102588.50
2022-10-18T17:42:03.669Z,102591.25
2022-10-18T17:44:36.523Z,102588.91
2022-10-18T17:47:09.555Z,102593.59
2022-10-18T17:49:49.768Z,102598.66
2022-10-18T17:52:22.408Z,102599.81
2022-10-18T17:54:55.188Z,102603.34
2022-10-18T17:57:30.382Z,102611.13
2022-10-18T18:00:05.347Z,102623.69
2022-10-18T18:02:45.982Z,102620.38
2022-10-18T18:05:22.633Z,102623.16
2022-10-18T18:08:03.578Z,102617.63
2022-10-18T18:10:39.519Z,102620.22
2022-10-18T18:13:16.246Z,102620.75
2022-10-18T18:15:56.274Z,102621.25
2022-10-18T18:18:31.055Z,102618.75
2022-10-18T18:21:04.812Z,102617.22
2022-10-18T18:23:44.433Z,102621.97
2022-10-18T18:26:17.777Z,102620.41
2022-10-18T18:28:51.819Z,102616.88
2022-10-18T18:31:25.709Z,102623.47
2022-10-18T18:34:03.598Z,102618.59
2022-10-18T18:36:39.104Z,102622.69
2022-10-18T18:39:32.565Z,102622.88
2022-10-18T18:42:14.136Z,102618.47
2022-10-18T18:44:46.595Z,102615.34
2022-10-18T18:47:22.614Z,102611.84
2022-10-18T18:49:55.581Z,102616.66
2022-10-18T18:52:29.725Z,102615.03
2022-10-18T18:55:06.166Z,102611.16
2022-10-18T18:57:38.514Z,102620.13
2022-10-18T19:00:14.282Z,102620.13
2022-10-18T19:02:49.998Z,102623.63
2022-10-18T19:08:00.636Z,102625.16
2022-10-18T19:10:33.258Z,102625.63
2022-10-18T19:13:05.651Z,102618.47
2022-10-18T19:15:40.611Z,102622.00
2022-10-18T19:18:14.659Z,102617.25
2022-10-18T19:23:38.983Z,102616.34
2022-10-18T19:26:21.992Z,102622.63
2022-10-18T19:28:55.676Z,102623.13
2022-10-18T19:31:34.910Z,102622.41
2022-10-18T19:34:09.803Z,102624.72
2022-10-18T19:36:45.380Z,102626.25
2022-10-18T19:39:23.793Z,102625.38
2022-10-18T19:41:57.264Z,102628.28
2022-10-18T19:44:34.071Z,102623.78
2022-10-18T19:47:07.662Z,102626.50
2022-10-18T19:49:40.756Z,102624.66
2022-10-18T19:52:13.505Z,102618.59
2022-10-18T19:54:48.125Z,102636.06
2022-10-18T19:57:29.683Z,102628.78
2022-10-18T20:00:03.545Z,102625.22
2022-10-18T20:02:40.761Z,102633.47
2022-10-18T20:05:13.209Z,102633.63
2022-10-18T20:07:47.308Z,102630.31
2022-10-18T20:10:19.686Z,102644.13
2022-10-18T20:12:52.160Z,102639.34
2022-10-18T20:22:32.586Z,102640.06
2022-10-18T20:25:05.127Z,102633.00
2022-10-18T20:27:37.579Z,102625.03
2022-10-18T20:30:11.667Z,102626.03
2022-10-18T20:32:43.954Z,102624.41
2022-10-18T20:35:16.233Z,102631.09
2022-10-18T20:37:48.521Z,102626.22
2022-10-18T20:40:20.850Z,102623.66
2022-10-18T20:42:53.223Z,102615.25
2022-10-18T20:45:25.972Z,102614.00
2022-10-18T20:47:59.828Z,102613.22
2022-10-18T20:50:32.329Z,102618.69
2022-10-18T20:53:04.735Z,102620.94
2022-10-18T20:55:39.024Z,102615.44
2022-10-18T20:58:14.150Z,102618.19
2022-10-18T21:00:46.516Z,102615.25
2022-10-18T21:03:25.156Z,102611.19
2022-10-18T21:05:59.557Z,102623.22
2022-10-18T21:08:31.996Z,102625.09
2022-10-18T21:11:06.974Z,102619.50
2022-10-18T21:13:40.970Z,102619.84
2022-10-18T21:16:14.721Z,102619.41
2022-10-18T21:18:47.499Z,102616.94
2022-10-18T21:21:21.179Z,102608.09
2022-10-18T21:23:55.192Z,102612.50
2022-10-18T21:26:30.560Z,102612.50
2022-10-18T21:29:06.999Z,102616.59
2022-10-18T21:31:40.706Z,102618.44
2022-10-18T21:34:16.640Z,102607.38
2022-10-18T21:36:49.240Z,102614.97
2022-10-18T21:41:58.242Z,102618.63
2022-10-18T21:44:39.502Z,102614.19
2022-10-18T21:47:12.186Z,102617.03
2022-10-18T21:49:44.706Z,102612.16
2022-10-18T21:52:17.454Z,102606.47
2022-10-18T21:54:51.191Z,102610.16
2022-10-18T21:57:23.638Z,102613.00
2022-10-18T21:59:56.195Z,102610.44
2022-10-18T22:02:28.493Z,102610.16
2022-10-18T22:05:02.047Z,102610.69
2022-10-18T22:07:34.964Z,102599.72
2022-10-18T22:10:07.831Z,102596.03
2022-10-18T22:12:40.205Z,102593.13
2022-10-18T22:15:12.612Z,102602.38
2022-10-18T22:17:44.912Z,102599.81
2022-10-18T22:20:17.444Z,102596.53
2022-10-18T22:22:54.048Z,102594.25
2022-10-18T22:25:26.371Z,102593.53
2022-10-18T22:27:58.884Z,102594.59
2022-10-18T22:30:31.490Z,102596.44
2022-10-18T22:33:03.992Z,102599.56
2022-10-18T22:35:36.361Z,102598.72
2022-10-18T22:38:08.712Z,102603.69
2022-10-18T22:40:41.052Z,102604.03
2022-10-18T22:43:13.430Z,102601.63
2022-10-18T22:45:45.754Z,102606.22
2022-10-18T22:48:18.130Z,102596.41
2022-10-18T22:50:50.661Z,102594.25
2022-10-18T22:53:23.326Z,102595.97
2022-10-18T22:55:55.837Z,102599.41
2022-10-18T22:58:28.152Z,102594.19
2022-10-18T23:01:01.790Z,102592.34
2022-10-18T23:03:36.800Z,102593.69
2022-10-18T23:06:41.832Z,102590.25
2022-10-18T23:09:14.392Z,102599.88
2022-10-18T23:11:48.396Z,102599.41
2022-10-18T23:14:21.104Z,102593.03
2022-10-18T23:16:53.525Z,102596.94
2022-10-18T23:19:25.951Z,102598.84
2022-10-18T23:22:00.822Z,102594.22
2022-10-18T23:24:33.296Z,102595.16
2022-10-18T23:27:05.730Z,102602.09
2022-10-18T23:29:38.248Z,102600.59
2022-10-18T23:32:10.750Z,102602.44
2022-10-18T23:34:43.295Z,102603.03
2022-10-18T23:37:15.893Z,102597.44
2022-10-18T23:39:48.425Z,102594.38
2022-10-18T23:42:21.032Z,102606.75
2022-10-18T23:44:53.659Z,102600.25
2022-10-18T23:47:26.044Z,102600.47
2022-10-18T23:49:58.880Z,102598.66
2022-10-18T23:52:31.312Z,102597.25
2022-10-18T23:55:04.089Z,102595.53
2022-10-18T23:57:36.636Z,102596.66
